sensor_id;sensor_type;location;lat;lon;timestamp;P1;durP1;ratioP1;P2;durP2;ratioP2
32946;SDS011;54465;51.230;22.504;2022-12-18T00:00:30;47.42;;;17.92;;
32946;SDS011;54465;51.230;22.504;2022-12-18T00:03:32;42.13;;;17.58;;
32946;SDS011;54465;51.230;22.504;2022-12-18T00:06:35;49.55;;;18.88;;
32946;SDS011;54465;51.230;22.504;2022-12-18T00:09:38;50.13;;;19.02;;
32946;SDS011;54465;51.230;22.504;2022-12-18T00:12:41;53.80;;;20.27;;
32946;SDS011;54465;51.230;22.504;2022-12-18T00:15:46;49.85;;;19.23;;
32946;SDS011;54465;51.230;22.504;2022-12-18T00:18:51;49.85;;;18.95;;
32946;SDS011;54465;51.230;22.504;2022-12-18T00:21:54;47.10;;;18.77;;
32946;SDS011;54465;51.230;22.504;2022-12-18T00:24:58;45.60;;;20.27;;
32946;SDS011;54465;51.230;22.504;2022-12-18T00:28:04;51.13;;;19.52;;
32946;SDS011;54465;51.230;22.504;2022-12-18T00:31:09;48.85;;;20.88;;
32946;SDS011;54465;51.230;22.504;2022-12-18T00:34:14;46.83;;;17.75;;
32946;SDS011;54465;51.230;22.504;2022-12-18T00:37:16;52.13;;;18.00;;
32946;SDS011;54465;51.230;22.504;2022-12-18T00:40:24;43.85;;;16.38;;
32946;SDS011;54465;51.230;22.504;2022-12-18T00:43:29;36.65;;;14.43;;
32946;SDS011;54465;51.230;22.504;2022-12-18T00:46:32;46.20;;;15.77;;
32946;SDS011;54465;51.230;22.504;2022-12-18T00:49:34;36.15;;;14.70;;
32946;SDS011;54465;51.230;22.504;2022-12-18T00:52:35;38.05;;;15.68;;
32946;SDS011;54465;51.230;22.504;2022-12-18T00:55:41;43.28;;;16.98;;
32946;SDS011;54465;51.230;22.504;2022-12-18T00:58:43;38.35;;;14.50;;
32946;SDS011;54465;51.230;22.504;2022-12-18T01:01:51;37.92;;;15.45;;
32946;SDS011;54465;51.230;22.504;2022-12-18T01:04:57;37.58;;;14.85;;
32946;SDS011;54465;51.230;22.504;2022-12-18T01:07:59;37.33;;;14.93;;
32946;SDS011;54465;51.230;22.504;2022-12-18T01:11:06;34.13;;;14.10;;
32946;SDS011;54465;51.230;22.504;2022-12-18T01:14:08;39.60;;;15.52;;
32946;SDS011;54465;51.230;22.504;2022-12-18T01:17:14;34.65;;;14.98;;
32946;SDS011;54465;51.230;22.504;2022-12-18T01:20:16;35.35;;;14.73;;
32946;SDS011;54465;51.230;22.504;2022-12-18T01:23:18;37.13;;;13.70;;
32946;SDS011;54465;51.230;22.504;2022-12-18T01:26:21;33.00;;;13.75;;
32946;SDS011;54465;51.230;22.504;2022-12-18T01:29:24;29.92;;;13.40;;
32946;SDS011;54465;51.230;22.504;2022-12-18T01:32:31;37.40;;;14.13;;
32946;SDS011;54465;51.230;22.504;2022-12-18T01:35:33;32.95;;;13.52;;
32946;SDS011;54465;51.230;22.504;2022-12-18T01:38:41;35.58;;;13.75;;
32946;SDS011;54465;51.230;22.504;2022-12-18T01:41:43;34.17;;;13.45;;
32946;SDS011;54465;51.230;22.504;2022-12-18T01:45:08;31.95;;;13.77;;
32946;SDS011;54465;51.230;22.504;2022-12-18T01:48:23;30.65;;;12.35;;
32946;SDS011;54465;51.230;22.504;2022-12-18T01:51:25;37.55;;;13.80;;
32946;SDS011;54465;51.230;22.504;2022-12-18T01:54:28;27.52;;;12.38;;
32946;SDS011;54465;51.230;22.504;2022-12-18T01:57:31;33.55;;;12.70;;
32946;SDS011;54465;51.230;22.504;2022-12-18T02:00:33;37.45;;;13.23;;
32946;SDS011;54465;51.230;22.504;2022-12-18T02:03:42;27.85;;;12.57;;
32946;SDS011;54465;51.230;22.504;2022-12-18T02:06:44;28.63;;;11.07;;
32946;SDS011;54465;51.230;22.504;2022-12-18T02:09:50;27.88;;;10.77;;
32946;SDS011;54465;51.230;22.504;2022-12-18T02:12:59;26.85;;;10.68;;
32946;SDS011;54465;51.230;22.504;2022-12-18T02:16:06;17.53;;;8.00;;
32946;SDS011;54465;51.230;22.504;2022-12-18T02:19:20;33.30;;;11.07;;
32946;SDS011;54465;51.230;22.504;2022-12-18T02:22:32;30.02;;;10.20;;
32946;SDS011;54465;51.230;22.504;2022-12-18T02:39:53;26.50;;;10.48;;
32946;SDS011;54465;51.230;22.504;2022-12-18T02:43:02;30.40;;;12.25;;
32946;SDS011;54465;51.230;22.504;2022-12-18T02:49:24;34.75;;;12.95;;
32946;SDS011;54465;51.230;22.504;2022-12-18T02:52:31;33.83;;;13.30;;
32946;SDS011;54465;51.230;22.504;2022-12-18T02:58:46;29.85;;;12.43;;
32946;SDS011;54465;51.230;22.504;2022-12-18T03:02:05;29.55;;;14.13;;
32946;SDS011;54465;51.230;22.504;2022-12-18T03:05:10;34.13;;;14.18;;
32946;SDS011;54465;51.230;22.504;2022-12-18T03:08:14;41.28;;;13.48;;
32946;SDS011;54465;51.230;22.504;2022-12-18T03:11:20;36.63;;;15.15;;
32946;SDS011;54465;51.230;22.504;2022-12-18T03:15:01;38.08;;;15.13;;
32946;SDS011;54465;51.230;22.504;2022-12-18T03:18:05;33.17;;;13.55;;
32946;SDS011;54465;51.230;22.504;2022-12-18T03:21:09;42.22;;;14.48;;
32946;SDS011;54465;51.230;22.504;2022-12-18T03:24:14;37.58;;;15.05;;
32946;SDS011;54465;51.230;22.504;2022-12-18T03:27:17;35.53;;;14.93;;
32946;SDS011;54465;51.230;22.504;2022-12-18T03:30:28;34.83;;;13.18;;
32946;SDS011;54465;51.230;22.504;2022-12-18T03:33:31;29.48;;;11.38;;
32946;SDS011;54465;51.230;22.504;2022-12-18T03:36:36;30.13;;;12.90;;
32946;SDS011;54465;51.230;22.504;2022-12-18T03:39:38;27.10;;;12.02;;
32946;SDS011;54465;51.230;22.504;2022-12-18T03:42:42;27.58;;;12.00;;
32946;SDS011;54465;51.230;22.504;2022-12-18T03:45:50;23.88;;;11.82;;
32946;SDS011;54465;51.230;22.504;2022-12-18T03:48:56;21.88;;;10.52;;
32946;SDS011;54465;51.230;22.504;2022-12-18T03:52:02;20.88;;;10.55;;
32946;SDS011;54465;51.230;22.504;2022-12-18T03:55:07;24.20;;;11.30;;
32946;SDS011;54465;51.230;22.504;2022-12-18T03:58:12;22.50;;;10.80;;
32946;SDS011;54465;51.230;22.504;2022-12-18T04:01:32;25.75;;;11.60;;
32946;SDS011;54465;51.230;22.504;2022-12-18T04:04:35;25.08;;;11.63;;
32946;SDS011;54465;51.230;22.504;2022-12-18T04:07:39;26.15;;;12.25;;
32946;SDS011;54465;51.230;22.504;2022-12-18T04:10:44;22.23;;;11.40;;
32946;SDS011;54465;51.230;22.504;2022-12-18T04:13:46;29.42;;;13.48;;
32946;SDS011;54465;51.230;22.504;2022-12-18T04:16:59;26.65;;;12.93;;
32946;SDS011;54465;51.230;22.504;2022-12-18T04:20:06;30.90;;;15.38;;
32946;SDS011;54465;51.230;22.504;2022-12-18T04:23:09;29.27;;;14.98;;
32946;SDS011;54465;51.230;22.504;2022-12-18T04:26:13;32.08;;;15.50;;
32946;SDS011;54465;51.230;22.504;2022-12-18T04:29:34;26.83;;;14.38;;
32946;SDS011;54465;51.230;22.504;2022-12-18T04:32:38;29.20;;;15.05;;
32946;SDS011;54465;51.230;22.504;2022-12-18T04:35:40;33.55;;;17.23;;
32946;SDS011;54465;51.230;22.504;2022-12-18T04:38:43;35.95;;;15.90;;
32946;SDS011;54465;51.230;22.504;2022-12-18T04:41:48;27.80;;;15.13;;
32946;SDS011;54465;51.230;22.504;2022-12-18T04:44:50;26.48;;;13.02;;
32946;SDS011;54465;51.230;22.504;2022-12-18T04:47:54;24.67;;;12.68;;
32946;SDS011;54465;51.230;22.504;2022-12-18T04:50:56;22.98;;;12.30;;
32946;SDS011;54465;51.230;22.504;2022-12-18T04:53:58;23.48;;;12.07;;
32946;SDS011;54465;51.230;22.504;2022-12-18T04:57:01;25.92;;;13.27;;
32946;SDS011;54465;51.230;22.504;2022-12-18T05:00:04;33.40;;;15.75;;
32946;SDS011;54465;51.230;22.504;2022-12-18T05:03:10;25.25;;;13.50;;
32946;SDS011;54465;51.230;22.504;2022-12-18T05:06:12;26.90;;;13.75;;
32946;SDS011;54465;51.230;22.504;2022-12-18T05:09:14;27.65;;;13.00;;
32946;SDS011;54465;51.230;22.504;2022-12-18T05:12:15;23.35;;;12.70;;
32946;SDS011;54465;51.230;22.504;2022-12-18T05:15:18;25.00;;;12.82;;
32946;SDS011;54465;51.230;22.504;2022-12-18T05:18:25;24.45;;;13.32;;
32946;SDS011;54465;51.230;22.504;2022-12-18T05:21:27;28.30;;;13.52;;
32946;SDS011;54465;51.230;22.504;2022-12-18T05:24:29;20.58;;;10.93;;
32946;SDS011;54465;51.230;22.504;2022-12-18T05:27:31;25.95;;;12.07;;
32946;SDS011;54465;51.230;22.504;2022-12-18T05:30:34;24.80;;;13.05;;
32946;SDS011;54465;51.230;22.504;2022-12-18T05:33:38;25.00;;;11.85;;
32946;SDS011;54465;51.230;22.504;2022-12-18T05:36:40;22.80;;;11.68;;
32946;SDS011;54465;51.230;22.504;2022-12-18T05:39:43;23.55;;;11.23;;
32946;SDS011;54465;51.230;22.504;2022-12-18T05:42:45;23.38;;;11.65;;
32946;SDS011;54465;51.230;22.504;2022-12-18T05:45:46;21.88;;;11.30;;
32946;SDS011;54465;51.230;22.504;2022-12-18T05:48:50;20.33;;;11.57;;
32946;SDS011;54465;51.230;22.504;2022-12-18T05:51:53;20.33;;;10.70;;
32946;SDS011;54465;51.230;22.504;2022-12-18T05:54:55;20.48;;;9.80;;
32946;SDS011;54465;51.230;22.504;2022-12-18T05:57:59;21.00;;;10.00;;
32946;SDS011;54465;51.230;22.504;2022-12-18T06:01:05;20.33;;;10.32;;
32946;SDS011;54465;51.230;22.504;2022-12-18T06:04:10;18.73;;;9.85;;
32946;SDS011;54465;51.230;22.504;2022-12-18T06:07:12;19.20;;;9.82;;
32946;SDS011;54465;51.230;22.504;2022-12-18T06:10:15;19.58;;;10.55;;
32946;SDS011;54465;51.230;22.504;2022-12-18T06:13:17;19.50;;;9.32;;
32946;SDS011;54465;51.230;22.504;2022-12-18T06:16:20;19.45;;;8.90;;
32946;SDS011;54465;51.230;22.504;2022-12-18T06:19:24;20.35;;;9.85;;
32946;SDS011;54465;51.230;22.504;2022-12-18T06:22:26;21.85;;;11.55;;
32946;SDS011;54465;51.230;22.504;2022-12-18T06:25:29;22.40;;;10.65;;
32946;SDS011;54465;51.230;22.504;2022-12-18T06:28:31;21.77;;;11.98;;
32946;SDS011;54465;51.230;22.504;2022-12-18T06:31:33;24.23;;;11.60;;
32946;SDS011;54465;51.230;22.504;2022-12-18T06:34:38;23.83;;;12.38;;
32946;SDS011;54465;51.230;22.504;2022-12-18T06:37:40;21.38;;;11.73;;
32946;SDS011;54465;51.230;22.504;2022-12-18T06:40:42;19.83;;;10.60;;
32946;SDS011;54465;51.230;22.504;2022-12-18T06:43:44;26.52;;;11.63;;
32946;SDS011;54465;51.230;22.504;2022-12-18T06:46:46;24.30;;;10.98;;
32946;SDS011;54465;51.230;22.504;2022-12-18T06:49:50;21.00;;;11.57;;
32946;SDS011;54465;51.230;22.504;2022-12-18T06:52:52;22.25;;;11.10;;
32946;SDS011;54465;51.230;22.504;2022-12-18T06:55:59;21.60;;;11.82;;
32946;SDS011;54465;51.230;22.504;2022-12-18T06:59:01;22.25;;;11.90;;
32946;SDS011;54465;51.230;22.504;2022-12-18T07:02:04;24.08;;;11.65;;
32946;SDS011;54465;51.230;22.504;2022-12-18T07:05:08;28.30;;;13.82;;
32946;SDS011;54465;51.230;22.504;2022-12-18T07:08:10;24.38;;;12.25;;
32946;SDS011;54465;51.230;22.504;2022-12-18T07:11:13;24.83;;;11.82;;
32946;SDS011;54465;51.230;22.504;2022-12-18T07:14:16;21.92;;;12.25;;
32946;SDS011;54465;51.230;22.504;2022-12-18T07:17:18;23.15;;;12.20;;
32946;SDS011;54465;51.230;22.504;2022-12-18T07:20:22;25.73;;;12.45;;
32946;SDS011;54465;51.230;22.504;2022-12-18T07:23:23;24.05;;;12.50;;
32946;SDS011;54465;51.230;22.504;2022-12-18T07:37:13;29.65;;;17.50;;
32946;SDS011;54465;51.230;22.504;2022-12-18T07:40:15;28.80;;;15.82;;
32946;SDS011;54465;51.230;22.504;2022-12-18T07:43:17;30.17;;;15.93;;
32946;SDS011;54465;51.230;22.504;2022-12-18T07:46:19;26.05;;;14.90;;
32946;SDS011;54465;51.230;22.504;2022-12-18T07:49:21;30.83;;;15.77;;
32946;SDS011;54465;51.230;22.504;2022-12-18T07:52:25;34.63;;;16.83;;
32946;SDS011;54465;51.230;22.504;2022-12-18T07:55:27;29.45;;;14.48;;
32946;SDS011;54465;51.230;22.504;2022-12-18T07:58:35;30.13;;;16.08;;
32946;SDS011;54465;51.230;22.504;2022-12-18T08:01:37;29.92;;;15.05;;
32946;SDS011;54465;51.230;22.504;2022-12-18T08:04:40;31.20;;;15.85;;
32946;SDS011;54465;51.230;22.504;2022-12-18T08:07:44;29.58;;;15.57;;
32946;SDS011;54465;51.230;22.504;2022-12-18T08:10:47;30.65;;;15.57;;
32946;SDS011;54465;51.230;22.504;2022-12-18T08:13:49;33.05;;;17.60;;
32946;SDS011;54465;51.230;22.504;2022-12-18T08:16:51;33.50;;;16.50;;
32946;SDS011;54465;51.230;22.504;2022-12-18T08:19:53;29.85;;;15.18;;
32946;SDS011;54465;51.230;22.504;2022-12-18T08:22:56;39.50;;;17.65;;
32946;SDS011;54465;51.230;22.504;2022-12-18T08:25:58;33.55;;;16.15;;
32946;SDS011;54465;51.230;22.504;2022-12-18T08:29:00;41.58;;;17.40;;
32946;SDS011;54465;51.230;22.504;2022-12-18T08:32:02;28.15;;;14.85;;
32946;SDS011;54465;51.230;22.504;2022-12-18T08:35:06;35.97;;;17.00;;
32946;SDS011;54465;51.230;22.504;2022-12-18T08:38:10;33.45;;;16.20;;
32946;SDS011;54465;51.230;22.504;2022-12-18T08:41:15;33.33;;;16.02;;
32946;SDS011;54465;51.230;22.504;2022-12-18T08:44:26;31.70;;;16.25;;
32946;SDS011;54465;51.230;22.504;2022-12-18T08:47:45;31.25;;;16.25;;
32946;SDS011;54465;51.230;22.504;2022-12-18T08:50:57;31.08;;;15.82;;
32946;SDS011;54465;51.230;22.504;2022-12-18T08:54:04;31.33;;;16.27;;
32946;SDS011;54465;51.230;22.504;2022-12-18T08:57:06;33.03;;;15.95;;
32946;SDS011;54465;51.230;22.504;2022-12-18T09:00:09;26.42;;;13.85;;
32946;SDS011;54465;51.230;22.504;2022-12-18T09:03:13;27.58;;;15.35;;
32946;SDS011;54465;51.230;22.504;2022-12-18T09:06:17;25.85;;;14.27;;
32946;SDS011;54465;51.230;22.504;2022-12-18T09:09:21;31.35;;;15.18;;
32946;SDS011;54465;51.230;22.504;2022-12-18T09:12:23;28.73;;;15.02;;
32946;SDS011;54465;51.230;22.504;2022-12-18T09:20:00;31.98;;;14.20;;
32946;SDS011;54465;51.230;22.504;2022-12-18T09:23:03;29.85;;;14.32;;
32946;SDS011;54465;51.230;22.504;2022-12-18T09:26:07;34.75;;;16.10;;
32946;SDS011;54465;51.230;22.504;2022-12-18T09:29:09;25.33;;;14.55;;
32946;SDS011;54465;51.230;22.504;2022-12-18T09:32:11;32.97;;;15.95;;
32946;SDS011;54465;51.230;22.504;2022-12-18T09:35:14;26.83;;;13.13;;
32946;SDS011;54465;51.230;22.504;2022-12-18T09:38:18;23.10;;;12.82;;
32946;SDS011;54465;51.230;22.504;2022-12-18T09:44:47;26.42;;;12.98;;
32946;SDS011;54465;51.230;22.504;2022-12-18T09:47:51;25.65;;;13.07;;
32946;SDS011;54465;51.230;22.504;2022-12-18T09:50:55;27.08;;;12.70;;
32946;SDS011;54465;51.230;22.504;2022-12-18T09:54:01;27.95;;;13.25;;
32946;SDS011;54465;51.230;22.504;2022-12-18T09:57:06;24.40;;;12.50;;
32946;SDS011;54465;51.230;22.504;2022-12-18T10:00:17;24.85;;;13.23;;
32946;SDS011;54465;51.230;22.504;2022-12-18T10:03:20;22.55;;;13.27;;
32946;SDS011;54465;51.230;22.504;2022-12-18T10:06:24;27.75;;;14.63;;
32946;SDS011;54465;51.230;22.504;2022-12-18T10:09:37;25.27;;;13.85;;
32946;SDS011;54465;51.230;22.504;2022-12-18T10:12:40;30.83;;;15.45;;
32946;SDS011;54465;51.230;22.504;2022-12-18T10:15:50;26.95;;;14.90;;
32946;SDS011;54465;51.230;22.504;2022-12-18T10:18:57;27.20;;;14.50;;
32946;SDS011;54465;51.230;22.504;2022-12-18T10:22:03;25.88;;;14.93;;
32946;SDS011;54465;51.230;22.504;2022-12-18T10:25:16;30.25;;;15.10;;
32946;SDS011;54465;51.230;22.504;2022-12-18T10:28:20;32.03;;;15.32;;
32946;SDS011;54465;51.230;22.504;2022-12-18T10:31:30;27.17;;;14.65;;
32946;SDS011;54465;51.230;22.504;2022-12-18T10:34:32;27.25;;;15.02;;
32946;SDS011;54465;51.230;22.504;2022-12-18T10:37:34;26.52;;;14.05;;
32946;SDS011;54465;51.230;22.504;2022-12-18T10:40:47;26.85;;;15.27;;
32946;SDS011;54465;51.230;22.504;2022-12-18T10:43:51;30.20;;;16.38;;
32946;SDS011;54465;51.230;22.504;2022-12-18T10:47:14;25.80;;;15.02;;
32946;SDS011;54465;51.230;22.504;2022-12-18T10:50:19;28.13;;;13.77;;
32946;SDS011;54465;51.230;22.504;2022-12-18T10:53:30;25.65;;;14.15;;
32946;SDS011;54465;51.230;22.504;2022-12-18T10:56:34;24.13;;;13.38;;
32946;SDS011;54465;51.230;22.504;2022-12-18T10:59:49;26.15;;;13.77;;
32946;SDS011;54465;51.230;22.504;2022-12-18T11:02:54;24.88;;;12.55;;
32946;SDS011;54465;51.230;22.504;2022-12-18T11:06:07;24.70;;;12.43;;
32946;SDS011;54465;51.230;22.504;2022-12-18T11:09:18;20.58;;;11.48;;
32946;SDS011;54465;51.230;22.504;2022-12-18T11:12:22;24.48;;;11.73;;
32946;SDS011;54465;51.230;22.504;2022-12-18T11:15:29;20.10;;;12.00;;
32946;SDS011;54465;51.230;22.504;2022-12-18T11:18:35;21.65;;;11.50;;
32946;SDS011;54465;51.230;22.504;2022-12-18T11:21:38;24.05;;;12.40;;
32946;SDS011;54465;51.230;22.504;2022-12-18T11:24:41;24.00;;;11.88;;
32946;SDS011;54465;51.230;22.504;2022-12-18T11:27:46;22.58;;;10.88;;
32946;SDS011;54465;51.230;22.504;2022-12-18T11:30:50;17.27;;;10.63;;
32946;SDS011;54465;51.230;22.504;2022-12-18T11:34:11;23.70;;;11.63;;
32946;SDS011;54465;51.230;22.504;2022-12-18T11:37:15;21.73;;;11.52;;
32946;SDS011;54465;51.230;22.504;2022-12-18T11:40:20;19.67;;;9.93;;
32946;SDS011;54465;51.230;22.504;2022-12-18T11:43:28;21.48;;;11.38;;
32946;SDS011;54465;51.230;22.504;2022-12-18T11:46:34;19.48;;;10.98;;
32946;SDS011;54465;51.230;22.504;2022-12-18T11:49:43;20.05;;;10.55;;
32946;SDS011;54465;51.230;22.504;2022-12-18T11:52:48;18.48;;;10.35;;
32946;SDS011;54465;51.230;22.504;2022-12-18T11:55:53;20.35;;;9.68;;
32946;SDS011;54465;51.230;22.504;2022-12-18T11:59:00;16.58;;;9.05;;
32946;SDS011;54465;51.230;22.504;2022-12-18T12:02:14;23.48;;;11.52;;
32946;SDS011;54465;51.230;22.504;2022-12-18T12:08:40;15.77;;;9.70;;
32946;SDS011;54465;51.230;22.504;2022-12-18T12:11:48;17.15;;;9.85;;
32946;SDS011;54465;51.230;22.504;2022-12-18T12:14:55;14.13;;;8.68;;
32946;SDS011;54465;51.230;22.504;2022-12-18T12:18:01;15.70;;;9.63;;
32946;SDS011;54465;51.230;22.504;2022-12-18T12:21:09;16.13;;;8.70;;
32946;SDS011;54465;51.230;22.504;2022-12-18T12:24:21;15.77;;;8.55;;
32946;SDS011;54465;51.230;22.504;2022-12-18T12:27:33;19.02;;;9.63;;
32946;SDS011;54465;51.230;22.504;2022-12-18T12:30:40;14.50;;;8.48;;
32946;SDS011;54465;51.230;22.504;2022-12-18T12:33:47;16.73;;;9.88;;
32946;SDS011;54465;51.230;22.504;2022-12-18T12:36:56;15.80;;;8.30;;
32946;SDS011;54465;51.230;22.504;2022-12-18T12:40:02;15.50;;;8.27;;
32946;SDS011;54465;51.230;22.504;2022-12-18T12:43:07;15.80;;;8.43;;
32946;SDS011;54465;51.230;22.504;2022-12-18T12:46:15;14.90;;;7.95;;
32946;SDS011;54465;51.230;22.504;2022-12-18T12:49:19;12.93;;;7.78;;
32946;SDS011;54465;51.230;22.504;2022-12-18T12:52:27;14.48;;;7.25;;
32946;SDS011;54465;51.230;22.504;2022-12-18T12:55:32;14.88;;;7.38;;
32946;SDS011;54465;51.230;22.504;2022-12-18T12:58:36;15.45;;;8.57;;
32946;SDS011;54465;51.230;22.504;2022-12-18T13:01:49;16.75;;;10.05;;
32946;SDS011;54465;51.230;22.504;2022-12-18T13:04:56;22.20;;;10.93;;
32946;SDS011;54465;51.230;22.504;2022-12-18T13:08:01;17.15;;;10.23;;
32946;SDS011;54465;51.230;22.504;2022-12-18T13:11:12;17.50;;;10.15;;
32946;SDS011;54465;51.230;22.504;2022-12-18T13:14:47;16.52;;;9.10;;
32946;SDS011;54465;51.230;22.504;2022-12-18T13:18:02;15.73;;;8.88;;
32946;SDS011;54465;51.230;22.504;2022-12-18T13:21:08;15.93;;;8.55;;
32946;SDS011;54465;51.230;22.504;2022-12-18T13:24:14;21.20;;;10.73;;
32946;SDS011;54465;51.230;22.504;2022-12-18T13:30:43;15.45;;;8.10;;
32946;SDS011;54465;51.230;22.504;2022-12-18T13:33:46;15.05;;;8.80;;
32946;SDS011;54465;51.230;22.504;2022-12-18T13:36:50;16.75;;;10.18;;
32946;SDS011;54465;51.230;22.504;2022-12-18T13:39:53;13.35;;;8.93;;
32946;SDS011;54465;51.230;22.504;2022-12-18T13:42:56;12.02;;;7.93;;
32946;SDS011;54465;51.230;22.504;2022-12-18T13:46:21;15.55;;;7.88;;
32946;SDS011;54465;51.230;22.504;2022-12-18T13:49:25;16.48;;;8.50;;
32946;SDS011;54465;51.230;22.504;2022-12-18T13:52:36;16.80;;;8.57;;
32946;SDS011;54465;51.230;22.504;2022-12-18T13:55:39;14.75;;;8.63;;
32946;SDS011;54465;51.230;22.504;2022-12-18T13:58:47;14.68;;;8.23;;
32946;SDS011;54465;51.230;22.504;2022-12-18T14:02:09;17.17;;;9.57;;
32946;SDS011;54465;51.230;22.504;2022-12-18T14:05:21;16.83;;;10.32;;
32946;SDS011;54465;51.230;22.504;2022-12-18T14:08:23;17.02;;;9.38;;
32946;SDS011;54465;51.230;22.504;2022-12-18T14:11:31;16.20;;;9.80;;
32946;SDS011;54465;51.230;22.504;2022-12-18T14:14:36;18.70;;;10.30;;
32946;SDS011;54465;51.230;22.504;2022-12-18T14:17:41;18.13;;;9.65;;
32946;SDS011;54465;51.230;22.504;2022-12-18T14:20:43;18.98;;;10.07;;
32946;SDS011;54465;51.230;22.504;2022-12-18T14:24:06;15.45;;;9.05;;
32946;SDS011;54465;51.230;22.504;2022-12-18T14:27:20;18.38;;;10.80;;
32946;SDS011;54465;51.230;22.504;2022-12-18T14:30:27;17.38;;;10.32;;
32946;SDS011;54465;51.230;22.504;2022-12-18T14:33:36;22.25;;;11.73;;
32946;SDS011;54465;51.230;22.504;2022-12-18T14:36:39;20.50;;;11.07;;
32946;SDS011;54465;51.230;22.504;2022-12-18T14:43:08;18.05;;;9.70;;
32946;SDS011;54465;51.230;22.504;2022-12-18T14:46:25;18.08;;;10.20;;
32946;SDS011;54465;51.230;22.504;2022-12-18T14:49:31;14.73;;;8.02;;
32946;SDS011;54465;51.230;22.504;2022-12-18T14:56:01;18.67;;;10.88;;
32946;SDS011;54465;51.230;22.504;2022-12-18T14:59:04;16.23;;;9.77;;
32946;SDS011;54465;51.230;22.504;2022-12-18T15:02:19;16.83;;;10.05;;
32946;SDS011;54465;51.230;22.504;2022-12-18T15:05:27;17.67;;;10.25;;
32946;SDS011;54465;51.230;22.504;2022-12-18T15:08:55;16.30;;;9.88;;
32946;SDS011;54465;51.230;22.504;2022-12-18T15:11:58;16.83;;;9.90;;
32946;SDS011;54465;51.230;22.504;2022-12-18T15:15:02;21.42;;;11.52;;
32946;SDS011;54465;51.230;22.504;2022-12-18T15:18:10;19.23;;;12.10;;
32946;SDS011;54465;51.230;22.504;2022-12-18T15:21:17;19.02;;;11.30;;
32946;SDS011;54465;51.230;22.504;2022-12-18T15:24:22;18.75;;;11.00;;
32946;SDS011;54465;51.230;22.504;2022-12-18T15:27:29;17.45;;;10.30;;
32946;SDS011;54465;51.230;22.504;2022-12-18T15:30:35;19.92;;;10.57;;
32946;SDS011;54465;51.230;22.504;2022-12-18T15:33:37;18.98;;;10.80;;
32946;SDS011;54465;51.230;22.504;2022-12-18T15:36:42;17.75;;;10.82;;
32946;SDS011;54465;51.230;22.504;2022-12-18T15:39:46;20.17;;;10.82;;
32946;SDS011;54465;51.230;22.504;2022-12-18T15:42:47;18.50;;;10.60;;
32946;SDS011;54465;51.230;22.504;2022-12-18T15:46:09;19.70;;;10.77;;
32946;SDS011;54465;51.230;22.504;2022-12-18T15:49:18;17.17;;;9.52;;
32946;SDS011;54465;51.230;22.504;2022-12-18T15:52:22;16.10;;;8.20;;
32946;SDS011;54465;51.230;22.504;2022-12-18T15:55:26;12.85;;;8.27;;
32946;SDS011;54465;51.230;22.504;2022-12-18T15:58:48;13.38;;;7.85;;
32946;SDS011;54465;51.230;22.504;2022-12-18T16:01:52;13.75;;;8.07;;
32946;SDS011;54465;51.230;22.504;2022-12-18T16:04:54;15.15;;;8.57;;
32946;SDS011;54465;51.230;22.504;2022-12-18T16:07:59;13.90;;;8.18;;
32946;SDS011;54465;51.230;22.504;2022-12-18T16:11:04;14.18;;;8.30;;
32946;SDS011;54465;51.230;22.504;2022-12-18T16:14:12;19.20;;;11.18;;
32946;SDS011;54465;51.230;22.504;2022-12-18T16:17:18;17.45;;;10.48;;
32946;SDS011;54465;51.230;22.504;2022-12-18T16:20:21;23.77;;;13.10;;
32946;SDS011;54465;51.230;22.504;2022-12-18T16:23:25;24.13;;;13.30;;
32946;SDS011;54465;51.230;22.504;2022-12-18T16:26:27;18.20;;;10.70;;
32946;SDS011;54465;51.230;22.504;2022-12-18T16:29:32;18.95;;;9.95;;
32946;SDS011;54465;51.230;22.504;2022-12-18T16:32:34;20.33;;;11.18;;
32946;SDS011;54465;51.230;22.504;2022-12-18T16:35:37;19.77;;;10.93;;
32946;SDS011;54465;51.230;22.504;2022-12-18T16:38:41;18.50;;;11.27;;
32946;SDS011;54465;51.230;22.504;2022-12-18T16:41:43;22.42;;;11.00;;
32946;SDS011;54465;51.230;22.504;2022-12-18T16:44:45;18.38;;;10.95;;
32946;SDS011;54465;51.230;22.504;2022-12-18T16:47:48;21.05;;;11.50;;
32946;SDS011;54465;51.230;22.504;2022-12-18T16:50:59;21.35;;;12.73;;
32946;SDS011;54465;51.230;22.504;2022-12-18T16:54:08;21.35;;;12.55;;
32946;SDS011;54465;51.230;22.504;2022-12-18T16:57:11;22.33;;;12.32;;
32946;SDS011;54465;51.230;22.504;2022-12-18T17:00:15;21.17;;;12.27;;
32946;SDS011;54465;51.230;22.504;2022-12-18T17:03:17;23.98;;;12.98;;
32946;SDS011;54465;51.230;22.504;2022-12-18T17:06:21;21.77;;;13.43;;
32946;SDS011;54465;51.230;22.504;2022-12-18T17:09:27;23.55;;;11.98;;
32946;SDS011;54465;51.230;22.504;2022-12-18T17:12:30;21.30;;;12.05;;
32946;SDS011;54465;51.230;22.504;2022-12-18T17:15:33;26.13;;;14.05;;
32946;SDS011;54465;51.230;22.504;2022-12-18T17:18:35;24.15;;;12.43;;
32946;SDS011;54465;51.230;22.504;2022-12-18T17:21:37;18.52;;;10.50;;
32946;SDS011;54465;51.230;22.504;2022-12-18T17:24:40;21.88;;;11.63;;
32946;SDS011;54465;51.230;22.504;2022-12-18T17:27:43;20.77;;;11.50;;
32946;SDS011;54465;51.230;22.504;2022-12-18T17:30:45;18.10;;;10.70;;
32946;SDS011;54465;51.230;22.504;2022-12-18T17:33:55;22.58;;;11.20;;
32946;SDS011;54465;51.230;22.504;2022-12-18T17:36:59;20.45;;;11.45;;
32946;SDS011;54465;51.230;22.504;2022-12-18T17:40:04;19.95;;;11.30;;
32946;SDS011;54465;51.230;22.504;2022-12-18T17:43:08;24.65;;;11.18;;
32946;SDS011;54465;51.230;22.504;2022-12-18T17:46:12;22.23;;;11.63;;
32946;SDS011;54465;51.230;22.504;2022-12-18T17:49:16;23.55;;;12.65;;
32946;SDS011;54465;51.230;22.504;2022-12-18T17:52:18;23.55;;;12.50;;
32946;SDS011;54465;51.230;22.504;2022-12-18T17:55:22;21.77;;;11.90;;
32946;SDS011;54465;51.230;22.504;2022-12-18T17:58:25;21.98;;;11.07;;
32946;SDS011;54465;51.230;22.504;2022-12-18T18:01:33;23.63;;;11.73;;
32946;SDS011;54465;51.230;22.504;2022-12-18T18:04:42;19.35;;;11.05;;
32946;SDS011;54465;51.230;22.504;2022-12-18T18:07:44;22.52;;;10.48;;
32946;SDS011;54465;51.230;22.504;2022-12-18T18:10:51;21.00;;;10.70;;
32946;SDS011;54465;51.230;22.504;2022-12-18T18:13:56;21.67;;;9.63;;
32946;SDS011;54465;51.230;22.504;2022-12-18T18:17:00;23.17;;;11.35;;
32946;SDS011;54465;51.230;22.504;2022-12-18T18:20:05;19.80;;;9.80;;
32946;SDS011;54465;51.230;22.504;2022-12-18T18:23:10;17.13;;;9.60;;
32946;SDS011;54465;51.230;22.504;2022-12-18T18:26:14;22.20;;;11.50;;
32946;SDS011;54465;51.230;22.504;2022-12-18T18:29:18;20.92;;;11.10;;
32946;SDS011;54465;51.230;22.504;2022-12-18T18:32:34;20.52;;;9.95;;
32946;SDS011;54465;51.230;22.504;2022-12-18T18:35:40;19.98;;;10.35;;
32946;SDS011;54465;51.230;22.504;2022-12-18T18:38:44;20.05;;;10.57;;
32946;SDS011;54465;51.230;22.504;2022-12-18T18:41:48;19.33;;;9.95;;
32946;SDS011;54465;51.230;22.504;2022-12-18T18:44:50;21.50;;;11.65;;